sensor_id;sensor_type;location;lat;lon;timestamp;temperature;humidity
21275;DHT22;36472;52.170;20.884;2023-02-28T00:00:34;21.80;29.70
21275;DHT22;36472;52.170;20.884;2023-02-28T00:03:16;21.80;29.90
21275;DHT22;36472;52.170;20.884;2023-02-28T00:05:45;21.80;29.90
21275;DHT22;36472;52.170;20.884;2023-02-28T00:08:14;21.80;29.70
21275;DHT22;36472;52.170;20.884;2023-02-28T00:10:44;21.70;29.70
21275;DHT22;36472;52.170;20.884;2023-02-28T00:13:13;21.70;29.70
21275;DHT22;36472;52.170;20.884;2023-02-28T00:15:42;21.70;29.70
21275;DHT22;36472;52.170;20.884;2023-02-28T00:18:12;21.60;29.70
21275;DHT22;36472;52.170;20.884;2023-02-28T00:20:41;21.60;29.70
21275;DHT22;36472;52.170;20.884;2023-02-28T00:23:10;21.60;29.70
21275;DHT22;36472;52.170;20.884;2023-02-28T00:25:39;21.60;30.00
21275;DHT22;36472;52.170;20.884;2023-02-28T00:28:10;21.60;30.00
21275;DHT22;36472;52.170;20.884;2023-02-28T00:30:38;21.50;29.70
21275;DHT22;36472;52.170;20.884;2023-02-28T00:33:08;21.60;29.70
21275;DHT22;36472;52.170;20.884;2023-02-28T00:35:37;21.50;30.00
21275;DHT22;36472;52.170;20.884;2023-02-28T00:38:09;21.50;29.90
21275;DHT22;36472;52.170;20.884;2023-02-28T00:40:38;21.50;30.00
21275;DHT22;36472;52.170;20.884;2023-02-28T00:43:07;21.40;30.10
21275;DHT22;36472;52.170;20.884;2023-02-28T00:45:38;21.40;30.10
21275;DHT22;36472;52.170;20.884;2023-02-28T00:48:07;21.40;30.30
21275;DHT22;36472;52.170;20.884;2023-02-28T00:50:38;21.40;30.00
21275;DHT22;36472;52.170;20.884;2023-02-28T00:53:07;21.40;29.90
21275;DHT22;36472;52.170;20.884;2023-02-28T00:55:36;21.40;29.90
21275;DHT22;36472;52.170;20.884;2023-02-28T00:58:05;21.40;29.90
21275;DHT22;36472;52.170;20.884;2023-02-28T01:00:34;21.30;29.90
21275;DHT22;36472;52.170;20.884;2023-02-28T01:03:05;21.30;30.20
21275;DHT22;36472;52.170;20.884;2023-02-28T01:05:34;21.30;29.90
21275;DHT22;36472;52.170;20.884;2023-02-28T01:08:03;21.30;29.60
21275;DHT22;36472;52.170;20.884;2023-02-28T01:10:33;21.30;29.60
21275;DHT22;36472;52.170;20.884;2023-02-28T01:13:04;21.30;29.70
21275;DHT22;36472;52.170;20.884;2023-02-28T01:15:33;21.30;29.90
21275;DHT22;36472;52.170;20.884;2023-02-28T01:18:02;21.30;29.80
21275;DHT22;36472;52.170;20.884;2023-02-28T01:20:32;21.30;30.00
21275;DHT22;36472;52.170;20.884;2023-02-28T01:23:01;21.30;29.90
21275;DHT22;36472;52.170;20.884;2023-02-28T01:25:30;21.30;30.00
21275;DHT22;36472;52.170;20.884;2023-02-28T01:27:59;21.20;29.90
21275;DHT22;36472;52.170;20.884;2023-02-28T01:30:28;21.20;30.20
21275;DHT22;36472;52.170;20.884;2023-02-28T01:32:57;21.20;30.00
21275;DHT22;36472;52.170;20.884;2023-02-28T01:35:26;21.20;29.90
21275;DHT22;36472;52.170;20.884;2023-02-28T01:37:56;21.20;30.00
21275;DHT22;36472;52.170;20.884;2023-02-28T01:40:42;21.20;30.20
21275;DHT22;36472;52.170;20.884;2023-02-28T01:43:19;21.10;30.10
21275;DHT22;36472;52.170;20.884;2023-02-28T01:45:51;21.10;30.00
21275;DHT22;36472;52.170;20.884;2023-02-28T01:48:24;21.10;29.70
21275;DHT22;36472;52.170;20.884;2023-02-28T01:50:58;21.10;29.70
21275;DHT22;36472;52.170;20.884;2023-02-28T01:53:42;21.10;29.90
21275;DHT22;36472;52.170;20.884;2023-02-28T01:56:17;21.10;29.90
21275;DHT22;36472;52.170;20.884;2023-02-28T01:58:53;21.10;30.50
21275;DHT22;36472;52.170;20.884;2023-02-28T02:01:25;21.10;30.20
21275;DHT22;36472;52.170;20.884;2023-02-28T02:03:59;21.00;30.00
21275;DHT22;36472;52.170;20.884;2023-02-28T02:06:34;21.00;29.70
21275;DHT22;36472;52.170;20.884;2023-02-28T02:09:12;21.00;30.00
21275;DHT22;36472;52.170;20.884;2023-02-28T02:11:43;21.00;30.10
21275;DHT22;36472;52.170;20.884;2023-02-28T02:14:37;21.00;30.20
21275;DHT22;36472;52.170;20.884;2023-02-28T02:17:22;21.00;29.90
21275;DHT22;36472;52.170;20.884;2023-02-28T02:20:24;21.00;30.00
21275;DHT22;36472;52.170;20.884;2023-02-28T02:23:39;21.00;30.00
21275;DHT22;36472;52.170;20.884;2023-02-28T02:26:51;21.00;30.00
21275;DHT22;36472;52.170;20.884;2023-02-28T02:29:50;21.00;30.10
21275;DHT22;36472;52.170;20.884;2023-02-28T02:36:12;20.90;30.20
21275;DHT22;36472;52.170;20.884;2023-02-28T02:38:51;20.90;30.00
21275;DHT22;36472;52.170;20.884;2023-02-28T02:41:31;20.90;29.90
21275;DHT22;36472;52.170;20.884;2023-02-28T02:44:11;20.90;29.90
21275;DHT22;36472;52.170;20.884;2023-02-28T02:46:48;20.90;29.90
21275;DHT22;36472;52.170;20.884;2023-02-28T02:49:21;20.90;29.90
21275;DHT22;36472;52.170;20.884;2023-02-28T02:51:58;20.90;29.70
21275;DHT22;36472;52.170;20.884;2023-02-28T02:54:34;20.90;29.80
21275;DHT22;36472;52.170;20.884;2023-02-28T02:57:08;20.90;29.70
21275;DHT22;36472;52.170;20.884;2023-02-28T02:59:42;20.90;29.80
21275;DHT22;36472;52.170;20.884;2023-02-28T03:02:14;20.90;29.90
21275;DHT22;36472;52.170;20.884;2023-02-28T03:04:50;20.90;30.20
21275;DHT22;36472;52.170;20.884;2023-02-28T03:07:22;20.90;30.10
21275;DHT22;36472;52.170;20.884;2023-02-28T03:09:52;20.80;30.20
21275;DHT22;36472;52.170;20.884;2023-02-28T03:12:28;20.80;30.20
21275;DHT22;36472;52.170;20.884;2023-02-28T03:15:09;20.80;30.20
21275;DHT22;36472;52.170;20.884;2023-02-28T03:17:56;20.80;30.00
21275;DHT22;36472;52.170;20.884;2023-02-28T03:20:37;20.80;29.90
21275;DHT22;36472;52.170;20.884;2023-02-28T03:23:17;20.80;30.00
21275;DHT22;36472;52.170;20.884;2023-02-28T03:25:56;20.80;30.00
21275;DHT22;36472;52.170;20.884;2023-02-28T03:28:34;20.80;30.00
21275;DHT22;36472;52.170;20.884;2023-02-28T03:31:15;20.80;30.00
21275;DHT22;36472;52.170;20.884;2023-02-28T03:33:51;20.70;30.10
21275;DHT22;36472;52.170;20.884;2023-02-28T03:36:29;20.80;30.30
21275;DHT22;36472;52.170;20.884;2023-02-28T03:39:08;20.70;30.30
21275;DHT22;36472;52.170;20.884;2023-02-28T03:41:43;20.70;30.30
21275;DHT22;36472;52.170;20.884;2023-02-28T03:44:23;20.70;31.10
21275;DHT22;36472;52.170;20.884;2023-02-28T03:46:59;20.70;31.00
21275;DHT22;36472;52.170;20.884;2023-02-28T03:49:34;20.70;30.70
21275;DHT22;36472;52.170;20.884;2023-02-28T03:52:10;20.70;30.70
21275;DHT22;36472;52.170;20.884;2023-02-28T03:54:45;20.70;30.50
21275;DHT22;36472;52.170;20.884;2023-02-28T03:57:26;20.70;30.40
21275;DHT22;36472;52.170;20.884;2023-02-28T04:00:05;20.70;30.60
21275;DHT22;36472;52.170;20.884;2023-02-28T04:02:40;20.60;30.00
21275;DHT22;36472;52.170;20.884;2023-02-28T04:05:09;20.60;30.00
21275;DHT22;36472;52.170;20.884;2023-02-28T04:07:38;20.60;30.10
21275;DHT22;36472;52.170;20.884;2023-02-28T04:10:09;20.60;30.10
21275;DHT22;36472;52.170;20.884;2023-02-28T04:12:40;20.60;30.20
21275;DHT22;36472;52.170;20.884;2023-02-28T04:15:09;20.60;30.30
21275;DHT22;36472;52.170;20.884;2023-02-28T04:17:38;20.60;30.30
21275;DHT22;36472;52.170;20.884;2023-02-28T04:20:08;20.60;30.40
21275;DHT22;36472;52.170;20.884;2023-02-28T04:22:39;20.60;30.30
21275;DHT22;36472;52.170;20.884;2023-02-28T04:25:09;20.60;30.20
21275;DHT22;36472;52.170;20.884;2023-02-28T04:27:38;20.60;30.60
21275;DHT22;36472;52.170;20.884;2023-02-28T04:30:08;20.60;30.60
21275;DHT22;36472;52.170;20.884;2023-02-28T04:32:38;20.60;30.60
21275;DHT22;36472;52.170;20.884;2023-02-28T04:35:08;20.60;30.40
21275;DHT22;36472;52.170;20.884;2023-02-28T04:37:39;20.60;30.00
21275;DHT22;36472;52.170;20.884;2023-02-28T04:40:10;20.50;30.00
21275;DHT22;36472;52.170;20.884;2023-02-28T04:42:39;20.60;30.20
21275;DHT22;36472;52.170;20.884;2023-02-28T04:45:09;20.60;30.20
21275;DHT22;36472;52.170;20.884;2023-02-28T04:47:38;20.60;30.20
21275;DHT22;36472;52.170;20.884;2023-02-28T04:50:08;20.50;30.10
21275;DHT22;36472;52.170;20.884;2023-02-28T04:52:38;20.50;30.00
21275;DHT22;36472;52.170;20.884;2023-02-28T04:55:09;20.50;30.00
21275;DHT22;36472;52.170;20.884;2023-02-28T04:57:38;20.50;30.00
21275;DHT22;36472;52.170;20.884;2023-02-28T05:00:10;20.60;30.00
21275;DHT22;36472;52.170;20.884;2023-02-28T05:02:44;20.60;30.00
21275;DHT22;36472;52.170;20.884;2023-02-28T05:05:13;20.50;30.00
21275;DHT22;36472;52.170;20.884;2023-02-28T05:07:45;20.50;30.00
21275;DHT22;36472;52.170;20.884;2023-02-28T05:10:16;20.60;30.10
21275;DHT22;36472;52.170;20.884;2023-02-28T05:12:45;20.50;30.20
21275;DHT22;36472;52.170;20.884;2023-02-28T05:15:16;20.50;30.20
21275;DHT22;36472;52.170;20.884;2023-02-28T05:17:45;20.50;30.10
21275;DHT22;36472;52.170;20.884;2023-02-28T05:20:14;20.50;30.00
21275;DHT22;36472;52.170;20.884;2023-02-28T05:22:44;20.50;30.00
21275;DHT22;36472;52.170;20.884;2023-02-28T05:25:18;20.50;30.00
21275;DHT22;36472;52.170;20.884;2023-02-28T05:27:49;20.50;30.30
21275;DHT22;36472;52.170;20.884;2023-02-28T05:30:18;20.50;30.60
21275;DHT22;36472;52.170;20.884;2023-02-28T05:32:51;20.50;31.00
21275;DHT22;36472;52.170;20.884;2023-02-28T05:35:20;20.50;30.80
21275;DHT22;36472;52.170;20.884;2023-02-28T05:37:49;20.50;30.90
21275;DHT22;36472;52.170;20.884;2023-02-28T05:40:19;20.40;30.80
21275;DHT22;36472;52.170;20.884;2023-02-28T05:42:50;20.40;31.00
21275;DHT22;36472;52.170;20.884;2023-02-28T05:45:19;20.50;31.60
21275;DHT22;36472;52.170;20.884;2023-02-28T05:47:48;20.40;31.20
21275;DHT22;36472;52.170;20.884;2023-02-28T05:50:17;20.50;30.70
21275;DHT22;36472;52.170;20.884;2023-02-28T05:52:49;20.50;30.70
21275;DHT22;36472;52.170;20.884;2023-02-28T05:55:19;20.50;30.60
21275;DHT22;36472;52.170;20.884;2023-02-28T05:57:48;20.50;30.90
21275;DHT22;36472;52.170;20.884;2023-02-28T06:00:18;20.50;31.20
21275;DHT22;36472;52.170;20.884;2023-02-28T06:02:47;20.50;31.00
21275;DHT22;36472;52.170;20.884;2023-02-28T06:05:17;20.50;31.00
21275;DHT22;36472;52.170;20.884;2023-02-28T06:07:46;20.60;31.40
21275;DHT22;36472;52.170;20.884;2023-02-28T06:10:15;20.60;31.20
21275;DHT22;36472;52.170;20.884;2023-02-28T06:12:46;20.60;31.20
21275;DHT22;36472;52.170;20.884;2023-02-28T06:15:16;20.60;31.20
21275;DHT22;36472;52.170;20.884;2023-02-28T06:17:45;20.60;31.30
21275;DHT22;36472;52.170;20.884;2023-02-28T06:20:14;20.70;31.30
21275;DHT22;36472;52.170;20.884;2023-02-28T06:22:43;20.70;31.30
21275;DHT22;36472;52.170;20.884;2023-02-28T06:25:12;20.70;31.40
21275;DHT22;36472;52.170;20.884;2023-02-28T06:27:41;20.80;31.50
21275;DHT22;36472;52.170;20.884;2023-02-28T06:30:12;20.80;31.40
21275;DHT22;36472;52.170;20.884;2023-02-28T06:32:42;20.90;31.50
21275;DHT22;36472;52.170;20.884;2023-02-28T06:35:10;20.90;31.50
21275;DHT22;36472;52.170;20.884;2023-02-28T06:37:41;21.00;31.50
21275;DHT22;36472;52.170;20.884;2023-02-28T06:40:12;21.00;31.60
21275;DHT22;36472;52.170;20.884;2023-02-28T06:42:41;21.10;31.40
21275;DHT22;36472;52.170;20.884;2023-02-28T06:45:12;21.20;31.30
21275;DHT22;36472;52.170;20.884;2023-02-28T06:47:42;21.20;31.30
21275;DHT22;36472;52.170;20.884;2023-02-28T06:50:12;21.30;31.30
21275;DHT22;36472;52.170;20.884;2023-02-28T06:52:41;21.30;31.40
21275;DHT22;36472;52.170;20.884;2023-02-28T06:55:10;21.40;31.30
21275;DHT22;36472;52.170;20.884;2023-02-28T06:57:39;21.50;31.10
21275;DHT22;36472;52.170;20.884;2023-02-28T07:00:10;21.60;30.90
21275;DHT22;36472;52.170;20.884;2023-02-28T07:02:41;21.60;30.60
21275;DHT22;36472;52.170;20.884;2023-02-28T07:05:10;21.70;30.60
21275;DHT22;36472;52.170;20.884;2023-02-28T07:07:39;21.80;30.70
21275;DHT22;36472;52.170;20.884;2023-02-28T07:10:11;21.80;30.60
21275;DHT22;36472;52.170;20.884;2023-02-28T07:12:46;21.90;30.50
21275;DHT22;36472;52.170;20.884;2023-02-28T07:15:17;22.00;29.50
21275;DHT22;36472;52.170;20.884;2023-02-28T07:17:46;22.00;29.70
21275;DHT22;36472;52.170;20.884;2023-02-28T07:20:15;22.10;29.30
21275;DHT22;36472;52.170;20.884;2023-02-28T07:22:44;22.20;29.40
21275;DHT22;36472;52.170;20.884;2023-02-28T07:25:13;22.30;29.10
21275;DHT22;36472;52.170;20.884;2023-02-28T07:27:42;22.30;29.00
21275;DHT22;36472;52.170;20.884;2023-02-28T07:30:12;22.50;29.30
21275;DHT22;36472;52.170;20.884;2023-02-28T07:32:43;22.50;29.20
21275;DHT22;36472;52.170;20.884;2023-02-28T07:35:12;22.60;29.20
21275;DHT22;36472;52.170;20.884;2023-02-28T07:37:42;22.70;28.80
21275;DHT22;36472;52.170;20.884;2023-02-28T07:40:12;22.80;28.20
21275;DHT22;36472;52.170;20.884;2023-02-28T07:42:42;22.90;28.20
21275;DHT22;36472;52.170;20.884;2023-02-28T07:45:12;22.90;28.30
21275;DHT22;36472;52.170;20.884;2023-02-28T07:47:43;23.00;28.50
21275;DHT22;36472;52.170;20.884;2023-02-28T07:50:15;23.10;28.10
21275;DHT22;36472;52.170;20.884;2023-02-28T07:52:44;23.00;27.70
21275;DHT22;36472;52.170;20.884;2023-02-28T07:55:13;23.00;27.10
21275;DHT22;36472;52.170;20.884;2023-02-28T07:57:43;23.10;27.40
21275;DHT22;36472;52.170;20.884;2023-02-28T08:00:13;23.20;27.20
21275;DHT22;36472;52.170;20.884;2023-02-28T08:02:44;23.20;27.10
21275;DHT22;36472;52.170;20.884;2023-02-28T08:05:13;23.20;27.00
21275;DHT22;36472;52.170;20.884;2023-02-28T08:07:42;23.20;26.80
21275;DHT22;36472;52.170;20.884;2023-02-28T08:10:11;23.30;27.00
21275;DHT22;36472;52.170;20.884;2023-02-28T08:12:40;23.30;26.70
21275;DHT22;36472;52.170;20.884;2023-02-28T08:15:10;23.40;26.90
21275;DHT22;36472;52.170;20.884;2023-02-28T08:17:39;23.40;27.10
21275;DHT22;36472;52.170;20.884;2023-02-28T08:20:10;23.50;27.20
21275;DHT22;36472;52.170;20.884;2023-02-28T08:22:40;23.60;26.40
21275;DHT22;36472;52.170;20.884;2023-02-28T08:25:12;23.30;26.50
21275;DHT22;36472;52.170;20.884;2023-02-28T08:27:41;23.50;27.10
21275;DHT22;36472;52.170;20.884;2023-02-28T08:30:11;23.60;27.10
21275;DHT22;36472;52.170;20.884;2023-02-28T08:32:41;23.70;26.40
21275;DHT22;36472;52.170;20.884;2023-02-28T08:35:11;23.90;26.80
21275;DHT22;36472;52.170;20.884;2023-02-28T08:37:40;23.90;27.20
21275;DHT22;36472;52.170;20.884;2023-02-28T08:40:10;24.00;27.00
21275;DHT22;36472;52.170;20.884;2023-02-28T08:42:45;24.10;26.40
21275;DHT22;36472;52.170;20.884;2023-02-28T08:45:14;24.10;26.30
21275;DHT22;36472;52.170;20.884;2023-02-28T08:47:43;23.90;26.00
21275;DHT22;36472;52.170;20.884;2023-02-28T08:50:14;24.00;26.40
21275;DHT22;36472;52.170;20.884;2023-02-28T08:52:43;24.20;26.00
21275;DHT22;36472;52.170;20.884;2023-02-28T08:55:13;24.20;26.00
21275;DHT22;36472;52.170;20.884;2023-02-28T08:57:42;24.30;25.90
21275;DHT22;36472;52.170;20.884;2023-02-28T09:00:12;24.30;25.80
21275;DHT22;36472;52.170;20.884;2023-02-28T09:02:42;24.30;26.20
21275;DHT22;36472;52.170;20.884;2023-02-28T09:05:11;24.30;25.90
21275;DHT22;36472;52.170;20.884;2023-02-28T09:07:41;24.30;26.40
21275;DHT22;36472;52.170;20.884;2023-02-28T09:10:11;24.40;26.50
21275;DHT22;36472;52.170;20.884;2023-02-28T09:12:39;24.40;26.30
21275;DHT22;36472;52.170;20.884;2023-02-28T09:15:10;24.50;25.80
21275;DHT22;36472;52.170;20.884;2023-02-28T09:17:39;24.70;26.10
21275;DHT22;36472;52.170;20.884;2023-02-28T09:20:10;24.80;25.70
21275;DHT22;36472;52.170;20.884;2023-02-28T09:22:41;25.00;25.50
21275;DHT22;36472;52.170;20.884;2023-02-28T09:25:10;25.20;26.00
21275;DHT22;36472;52.170;20.884;2023-02-28T09:27:39;25.50;25.30
21275;DHT22;36472;52.170;20.884;2023-02-28T09:30:10;25.70;25.30
21275;DHT22;36472;52.170;20.884;2023-02-28T09:32:40;25.90;25.40
21275;DHT22;36472;52.170;20.884;2023-02-28T09:35:09;26.10;24.70
21275;DHT22;36472;52.170;20.884;2023-02-28T09:37:41;26.30;24.70
21275;DHT22;36472;52.170;20.884;2023-02-28T09:40:12;26.40;24.90
21275;DHT22;36472;52.170;20.884;2023-02-28T09:42:46;26.50;24.80
21275;DHT22;36472;52.170;20.884;2023-02-28T09:45:23;26.60;24.60
21275;DHT22;36472;52.170;20.884;2023-02-28T09:47:58;26.60;25.00
21275;DHT22;36472;52.170;20.884;2023-02-28T09:50:35;26.70;24.80
21275;DHT22;36472;52.170;20.884;2023-02-28T09:53:14;26.70;24.70
21275;DHT22;36472;52.170;20.884;2023-02-28T09:55:52;26.70;24.60
21275;DHT22;36472;52.170;20.884;2023-02-28T09:58:30;26.70;24.40
21275;DHT22;36472;52.170;20.884;2023-02-28T10:01:06;26.80;24.60
21275;DHT22;36472;52.170;20.884;2023-02-28T10:03:44;26.80;25.00
21275;DHT22;36472;52.170;20.884;2023-02-28T10:06:20;26.90;24.50
21275;DHT22;36472;52.170;20.884;2023-02-28T10:09:00;26.90;24.60
21275;DHT22;36472;52.170;20.884;2023-02-28T10:11:33;27.00;24.50
21275;DHT22;36472;52.170;20.884;2023-02-28T10:14:12;27.00;24.50
21275;DHT22;36472;52.170;20.884;2023-02-28T10:16:46;27.00;24.30
21275;DHT22;36472;52.170;20.884;2023-02-28T10:19:23;27.00;24.20
21275;DHT22;36472;52.170;20.884;2023-02-28T10:22:03;27.00;24.30
21275;DHT22;36472;52.170;20.884;2023-02-28T10:24:42;27.10;24.80
21275;DHT22;36472;52.170;20.884;2023-02-28T10:27:15;27.00;24.10
21275;DHT22;36472;52.170;20.884;2023-02-28T10:29:47;27.10;24.90
21275;DHT22;36472;52.170;20.884;2023-02-28T10:32:20;27.00;24.20
21275;DHT22;36472;52.170;20.884;2023-02-28T10:34:52;27.10;24.30
21275;DHT22;36472;52.170;20.884;2023-02-28T10:37:26;27.20;24.30
21275;DHT22;36472;52.170;20.884;2023-02-28T10:39:56;27.20;24.30
21275;DHT22;36472;52.170;20.884;2023-02-28T10:42:27;27.20;24.20
21275;DHT22;36472;52.170;20.884;2023-02-28T10:45:11;27.30;24.30
21275;DHT22;36472;52.170;20.884;2023-02-28T10:47:51;27.40;24.40
21275;DHT22;36472;52.170;20.884;2023-02-28T10:50:37;27.30;24.30
21275;DHT22;36472;52.170;20.884;2023-02-28T10:53:22;27.40;24.00
21275;DHT22;36472;52.170;20.884;2023-02-28T10:56:15;27.50;24.00
21275;DHT22;36472;52.170;20.884;2023-02-28T10:58:52;27.70;24.30
21275;DHT22;36472;52.170;20.884;2023-02-28T11:01:24;27.80;24.00
21275;DHT22;36472;52.170;20.884;2023-02-28T11:04:17;27.90;23.80
21275;DHT22;36472;52.170;20.884;2023-02-28T11:06:56;28.10;23.50
21275;DHT22;36472;52.170;20.884;2023-02-28T11:09:29;28.10;23.60
21275;DHT22;36472;52.170;20.884;2023-02-28T11:12:05;28.00;23.70
21275;DHT22;36472;52.170;20.884;2023-02-28T11:14:46;28.00;23.50
21275;DHT22;36472;52.170;20.884;2023-02-28T11:17:21;28.10;23.40
21275;DHT22;36472;52.170;20.884;2023-02-28T11:19:54;28.10;23.50
21275;DHT22;36472;52.170;20.884;2023-02-28T11:22:27;28.20;23.50
21275;DHT22;36472;52.170;20.884;2023-02-28T11:25:02;28.30;23.30
21275;DHT22;36472;52.170;20.884;2023-02-28T11:27:47;28.50;23.20
21275;DHT22;36472;52.170;20.884;2023-02-28T11:30:29;28.60;22.90
21275;DHT22;36472;52.170;20.884;2023-02-28T11:33:22;28.90;23.20
21275;DHT22;36472;52.170;20.884;2023-02-28T11:35:58;29.10;23.60
21275;DHT22;36472;52.170;20.884;2023-02-28T11:38:32;29.30;23.10
21275;DHT22;36472;52.170;20.884;2023-02-28T11:41:35;29.50;23.10
21275;DHT22;36472;52.170;20.884;2023-02-28T11:44:28;29.80;22.90
21275;DHT22;36472;52.170;20.884;2023-02-28T11:47:11;29.90;22.60
21275;DHT22;36472;52.170;20.884;2023-02-28T11:49:52;30.10;22.50
21275;DHT22;36472;52.170;20.884;2023-02-28T11:52:38;30.10;22.50
21275;DHT22;36472;52.170;20.884;2023-02-28T11:55:20;30.20;22.10
21275;DHT22;36472;52.170;20.884;2023-02-28T12:04:21;30.50;22.20
21275;DHT22;36472;52.170;20.884;2023-02-28T12:06:59;30.60;22.20
21275;DHT22;36472;52.170;20.884;2023-02-28T12:09:50;30.70;22.00
21275;DHT22;36472;52.170;20.884;2023-02-28T12:12:39;30.70;21.90
21275;DHT22;36472;52.170;20.884;2023-02-28T12:15:29;30.70;22.30
21275;DHT22;36472;52.170;20.884;2023-02-28T12:18:30;30.60;22.00
21275;DHT22;36472;52.170;20.884;2023-02-28T12:21:31;30.60;22.10
21275;DHT22;36472;52.170;20.884;2023-02-28T12:24:34;30.50;22.70
21275;DHT22;36472;52.170;20.884;2023-02-28T12:27:24;30.50;22.10
21275;DHT22;36472;52.170;20.884;2023-02-28T12:29:59;30.50;22.10
21275;DHT22;36472;52.170;20.884;2023-02-28T12:32:34;30.40;22.40
21275;DHT22;36472;52.170;20.884;2023-02-28T12:35:13;30.30;22.30
21275;DHT22;36472;52.170;20.884;2023-02-28T12:37:50;30.10;22.50
21275;DHT22;36472;52.170;20.884;2023-02-28T12:40:28;29.80;22.50
21275;DHT22;36472;52.170;20.884;2023-02-28T12:43:09;29.50;22.80
21275;DHT22;36472;52.170;20.884;2023-02-28T12:45:43;29.20;23.00
21275;DHT22;36472;52.170;20.884;2023-02-28T12:48:21;28.80;22.90
21275;DHT22;36472;52.170;20.884;2023-02-28T12:50:57;28.40;23.40
21275;DHT22;36472;52.170;20.884;2023-02-28T12:53:37;28.10;23.70
21275;DHT22;36472;52.170;20.884;2023-02-28T12:56:31;27.70;23.90
21275;DHT22;36472;52.170;20.884;2023-02-28T12:59:14;27.50;24.00
21275;DHT22;36472;52.170;20.884;2023-02-28T13:02:30;27.20;24.30
21275;DHT22;36472;52.170;20.884;2023-02-28T13:09:08;26.70;24.70
21275;DHT22;36472;52.170;20.884;2023-02-28T13:11:41;26.40;24.70
21275;DHT22;36472;52.170;20.884;2023-02-28T13:14:24;26.30;25.10
21275;DHT22;36472;52.170;20.884;2023-02-28T13:17:03;26.20;25.20
21275;DHT22;36472;52.170;20.884;2023-02-28T13:19:43;26.10;25.10
21275;DHT22;36472;52.170;20.884;2023-02-28T13:22:37;26.00;25.10
21275;DHT22;36472;52.170;20.884;2023-02-28T13:35:35;25.70;25.40
21275;DHT22;36472;52.170;20.884;2023-02-28T13:38:31;25.70;25.90
21275;DHT22;36472;52.170;20.884;2023-02-28T13:44:23;25.70;26.00
21275;DHT22;36472;52.170;20.884;2023-02-28T13:47:20;25.70;25.80
21275;DHT22;36472;52.170;20.884;2023-02-28T13:50:14;25.70;25.80
21275;DHT22;36472;52.170;20.884;2023-02-28T13:52:57;25.60;25.70
21275;DHT22;36472;52.170;20.884;2023-02-28T13:55:49;25.70;25.90
21275;DHT22;36472;52.170;20.884;2023-02-28T13:58:43;25.60;25.70
21275;DHT22;36472;52.170;20.884;2023-02-28T14:01:50;25.60;25.60
21275;DHT22;36472;52.170;20.884;2023-02-28T14:04:56;25.50;26.00
21275;DHT22;36472;52.170;20.884;2023-02-28T14:07:32;25.50;25.80
21275;DHT22;36472;52.170;20.884;2023-02-28T14:10:15;25.50;26.10
21275;DHT22;36472;52.170;20.884;2023-02-28T14:13:02;25.50;25.90
21275;DHT22;36472;52.170;20.884;2023-02-28T14:15:43;25.50;25.90
21275;DHT22;36472;52.170;20.884;2023-02-28T14:18:34;25.50;26.10
21275;DHT22;36472;52.170;20.884;2023-02-28T14:21:12;25.50;25.80
21275;DHT22;36472;52.170;20.884;2023-02-28T14:30:40;25.50;26.00
21275;DHT22;36472;52.170;20.884;2023-02-28T14:33:25;25.50;26.10
21275;DHT22;36472;52.170;20.884;2023-02-28T14:36:17;25.50;26.10
21275;DHT22;36472;52.170;20.884;2023-02-28T14:38:52;25.50;26.40
21275;DHT22;36472;52.170;20.884;2023-02-28T14:41:29;25.50;26.20
21275;DHT22;36472;52.170;20.884;2023-02-28T14:44:14;25.50;26.00
21275;DHT22;36472;52.170;20.884;2023-02-28T14:46:49;25.50;25.90
21275;DHT22;36472;52.170;20.884;2023-02-28T14:49:23;25.50;26.00
21275;DHT22;36472;52.170;20.884;2023-02-28T14:52:05;25.50;26.10
21275;DHT22;36472;52.170;20.884;2023-02-28T14:54:38;25.50;26.10
21275;DHT22;36472;52.170;20.884;2023-02-28T14:57:21;25.50;26.20
21275;DHT22;36472;52.170;20.884;2023-02-28T14:59:59;25.50;26.30
21275;DHT22;36472;52.170;20.884;2023-02-28T15:02:34;25.50;26.30
21275;DHT22;36472;52.170;20.884;2023-02-28T15:05:20;25.40;26.40
21275;DHT22;36472;52.170;20.884;2023-02-28T15:08:05;25.40;26.20
21275;DHT22;36472;52.170;20.884;2023-02-28T15:10:40;25.40;26.20
21275;DHT22;36472;52.170;20.884;2023-02-28T15:13:13;25.40;26.30
21275;DHT22;36472;52.170;20.884;2023-02-28T15:15:47;25.40;26.20
21275;DHT22;36472;52.170;20.884;2023-02-28T15:18:38;25.40;26.10
21275;DHT22;36472;52.170;20.884;2023-02-28T15:21:17;25.40;26.10
21275;DHT22;36472;52.170;20.884;2023-02-28T15:23:51;25.40;26.20
21275;DHT22;36472;52.170;20.884;2023-02-28T15:26:27;25.30;26.20
21275;DHT22;36472;52.170;20.884;2023-02-28T15:28:59;25.30;26.10
21275;DHT22;36472;52.170;20.884;2023-02-28T15:31:41;25.30;26.10
21275;DHT22;36472;52.170;20.884;2023-02-28T15:34:33;25.30;26.40
21275;DHT22;36472;52.170;20.884;2023-02-28T15:37:39;25.30;26.40
21275;DHT22;36472;52.170;20.884;2023-02-28T15:40:16;25.30;26.50
21275;DHT22;36472;52.170;20.884;2023-02-28T15:43:04;25.20;26.60
21275;DHT22;36472;52.170;20.884;2023-02-28T15:45:38;25.20;26.50
21275;DHT22;36472;52.170;20.884;2023-02-28T15:48:18;25.20;27.50
21275;DHT22;36472;52.170;20.884;2023-02-28T15:50:52;25.20;27.30
21275;DHT22;36472;52.170;20.884;2023-02-28T15:53:25;25.20;27.20
21275;DHT22;36472;52.170;20.884;2023-02-28T15:56:02;25.10;27.20
21275;DHT22;36472;52.170;20.884;2023-02-28T15:58:35;25.10;27.10
21275;DHT22;36472;52.170;20.884;2023-02-28T16:01:15;25.00;27.30
21275;DHT22;36472;52.170;20.884;2023-02-28T16:03:49;25.00;27.40
21275;DHT22;36472;52.170;20.884;2023-02-28T16:06:32;24.90;27.80
21275;DHT22;36472;52.170;20.884;2023-02-28T16:09:04;24.80;27.60
21275;DHT22;36472;52.170;20.884;2023-02-28T16:11:39;24.80;27.60
21275;DHT22;36472;52.170;20.884;2023-02-28T16:14:17;24.70;28.00
21275;DHT22;36472;52.170;20.884;2023-02-28T16:16:52;24.70;28.00
21275;DHT22;36472;52.170;20.884;2023-02-28T16:19:23;24.60;28.20
21275;DHT22;36472;52.170;20.884;2023-02-28T16:21:54;24.50;28.20
21275;DHT22;36472;52.170;20.884;2023-02-28T16:24:23;24.50;28.40
21275;DHT22;36472;52.170;20.884;2023-02-28T16:26:54;24.40;28.50
21275;DHT22;36472;52.170;20.884;2023-02-28T16:29:27;24.40;28.40
21275;DHT22;36472;52.170;20.884;2023-02-28T16:31:59;24.30;28.50
21275;DHT22;36472;52.170;20.884;2023-02-28T16:34:29;24.20;28.40
21275;DHT22;36472;52.170;20.884;2023-02-28T16:36:59;24.20;28.40
21275;DHT22;36472;52.170;20.884;2023-02-28T16:39:28;24.10;28.60